Terminal Aerodrome Forecast
Issued by NWS Cleveland, OH

Home | Current Version | Previous Version | Text Only | Print | Product List | Glossary Off
Versions: 1 2 3 4 5 6 7 8 9 10 11 12 13 14 15

403
FTUS41 KCLE 221736
TAFMFD
TAF
KMFD 221736Z 2218/2318 24005KT P6SM SCT250
     FM230200 VRB03KT P6SM BKN200
     FM231600 35006KT P6SM SCT045=

USA.gov is the U.S. government's official web portal to all federal, state and local government web resources and services.